Flight Track Log - Related Links

Times and Time Zones

All times are in EDT time to prevent confusion due to time zone crossing. See the N779NC flight status page for this flight to view local times or setup timezone preferences in your user account.

Time Position Orientation Groundspeed Altitude Reporting Facility
EDT Latitude Longitude Course Direction KTS MPH feet Rate Location/Type
Sat 03:24:27 PM 41.9667 -87.8833 14° North 160 184 1,900  Level Chicago TRACON
Sat 03:25:27 PM 41.9667 -87.8000 90° East 225 259 3,700 2,014 Climbing Chicago TRACON
Sat 03:26:47 PM 42.0644 -87.8119 355° North 281 323 6,600 2,366 Climbing Chicago Center
Sat 03:27:00 PM 42.3478 -87.7839 10° North  Level FlightAware Approximate
Sat 03:27:49 PM 42.1436 -87.8153 358° North 286 329 9,300  Level Chicago Center
Sat 03:28:00 PM 42.4412 -87.7451 North  Level FlightAware Approximate
Sat 03:28:51 PM 42.2281 -87.8256 355° North 304 350 11,500  Level Chicago Center
Sat 03:29:00 PM 42.5381 -87.7262 14° North  Level FlightAware Approximate
Sat 03:29:53 PM 42.3161 -87.8344 356° North 316 364 13,400  Level Chicago Center
Sat 03:30:55 PM 42.4175 -87.8186 North 345 397 14,900 1,645 Climbing Chicago Center
Sat 03:31:57 PM 42.5186 -87.7906 12° North 362 417 16,800 1,597 Climbing Chicago Center
Sat 03:32:59 PM 42.6200 -87.7408 20° North 381 438 18,200 1,597 Climbing Chicago Center
Sat 03:34:01 PM 42.7381 -87.6706 24° Northeast 409 471 20,100 1,645 Climbing Chicago Center
Sat 03:35:03 PM 42.7853 -87.5372 64° Northeast 397 457 21,600 1,403 Climbing Chicago Center
Sat 03:36:05 PM 42.8294 -87.3989 66° East 399 459 23,000 677 Climbing Chicago Center
Sat 03:37:07 PM 42.8692 -87.2542 69° East 418 481 23,000 48 Level Chicago Center
Sat 03:38:09 PM 42.9064 -87.0944 72° East 441 507 23,100 48 Climbing Chicago Center
Sat 03:39:11 PM 42.9544 -86.9058 71° East 439 505 23,100  Level Chicago Center
Sat 03:40:13 PM 42.9892 -86.7544 73° East 423 487 23,100  Level Chicago Center
Sat 03:41:14 PM 43.0225 -86.6017 73° East 420 483 23,100  Level Chicago Center
Sat 03:42:16 PM 43.0553 -86.4428 74° East 430 495 23,100  Level Chicago Center
Sat 03:43:18 PM 43.0975 -86.2839 70° East 441 507 23,100  Level Chicago Center
Sat 03:44:20 PM 43.1494 -86.1250 66° East 451 519 23,100  Level Chicago Center
Sat 03:45:22 PM 43.1892 -85.9561 72° East 459 528 23,100  Level Chicago Center
Sat 03:46:24 PM 43.2067 -85.7839 82° East 452 520 23,100  Level Chicago Center
Sat 03:47:26 PM 43.2136 -85.6136 87° East 448 516 23,100  Level Chicago Center
Sat 03:48:28 PM 43.2369 -85.4156 81° East 439 505 23,100  Level Chicago Center
Sat 03:49:30 PM 43.2581 -85.2508 80° East 440 506 23,100  Level Chicago Center
Sat 03:50:32 PM 43.2286 -85.0908 104° East 430 495 23,100  Level Chicago Center
Sat 03:51:34 PM 43.1933 -84.9342 107° East 430 495 23,100  Level Chicago Center
Sat 03:52:36 PM 43.1558 -84.7761 108° East 435 501 23,100  Level Chicago Center
Sat 03:53:38 PM 43.1203 -84.6158 107° East 439 505 23,100  Level Chicago Center
Sat 03:54:40 PM 43.0878 -84.4519 105° East 445 512 23,100 -968 Level Chicago Center
Sat 03:55:42 PM 43.0506 -84.2594 105° East 440 506 21,100 -2,323 Descending Chicago Center
Sat 03:56:44 PM 43.0256 -84.1064 103° East 420 483 18,300 -2,579 Descending Chicago Center
Sat 03:57:36 PM 42.9975 -83.9928 109° East 411 473 16,200 -2,518 Descending Cleveland Center
Sat 03:58:36 PM 42.9469 -83.8650 118° Southeast 391 450 13,600 -1,900 Descending Cleveland Center
Sat 03:59:36 PM 42.9022 -83.7492 118° Southeast 372 428 12,400 -800 Descending Cleveland Center
Sat 04:00:36 PM 42.8283 -83.7117 160° South 300 345 12,000 -500 Descending Cleveland Center
Sat 04:01:36 PM 42.7556 -83.7022 175° South 268 308 11,400 -1,450 Descending Cleveland Center
Sat 04:02:36 PM 42.6958 -83.6767 163° South 239 275 9,100 -1,350 Descending Cleveland Center
Sat 04:03:36 PM 42.6514 -83.6208 137° Southeast 239 275 8,700 -1,100 Descending Cleveland Center
Sat 04:04:36 PM 42.6433 -83.5331 97° East 199 229 6,900 -1,400 Descending Cleveland Center
Sat 04:05:36 PM 42.6203 -83.4556 112° Southeast 205 236 5,900 -400 Descending Cleveland Center
Sat 04:06:36 PM 42.5950 -83.3756 113° Southeast 216 249 6,100 -465 Climbing Cleveland Center
Sat 04:07:58 PM 42.5369 -83.2856 131° Southeast 213 245 4,800 -881 Descending Cleveland Center
Sat 04:08:59 PM 42.4858 -83.2383 146° Southeast 211 243 4,000 -344 Descending Cleveland Center
Sat 04:10:00 PM 42.4253 -83.2442 184° South 219 252 4,100 -98 Climbing Cleveland Center
Sat 04:11:01 PM 42.3664 -83.2642 194° South 204 235 3,800 -683 Descending Cleveland Center
Sat 04:12:03 PM 42.3217 -83.2989 210° Southwest 167 192 2,700 -1,065 Descending Cleveland Center

Login

Don't have an account? Register now (free) for customized features, flight alerts, and more!